메인 페이지
METAR-TAF:

METAR-TAF

공항 :

바마코, 말리

위도: 12-32N, 경도: 007-57W, 고도: 380m

현재 날씨관측

예보는 47분 전, 09:00시(UTC)에 발표되었습니다.
여러 방향의 바람 3kt
온도 29°C
습도 52%
기압 1016 hPa
시정: 8000m
고도 2000ft 상공 구름 조금

METAR: GABS 150900Z VRB03KT 8000 FEW020 29/18 Q1016 NOSIG

시각: 09:47 (09:47 UTC)

예보

예보는 2 시간 47분 전, 07:00시(UTC)에 발표되었습니다.
예보 대상 시간: 15일 07시부터 16일 12시까지 (UTC)
6kt
시정 10km 이상
고도 3000ft 상공 구름 조금
확률 40% :
일시적
15일 08시부터 15일 12시까지 (UTC)
15kt, 순간 최대 풍속 25kt
시정: 5000m
고도 2500ft 상공 구름 보통
고도 3000ft 상공 구름 조금, 적란운.
뇌우, 약한비
확률 40% :
일시적
15일 15시부터 15일 21시까지 (UTC)
20kt, 순간 최대 풍속 40kt
시정: 3000m
고도 2000ft 상공 구름 보통
고도 3000ft 상공 구름 보통, 적란운.
날린먼지, 뇌우, 비
일시적
16일 03시부터 16일 09시까지 (UTC)
20kt, 순간 최대 풍속 45kt
시정: 3000m
고도 2000ft 상공 구름 보통
고도 3000ft 상공 구름 보통, 적란운.
뇌우, 비

TAF: GABS 150700Z 1507/1612 18006KT 9999 FEW030 PROB40 TEMPO 1508/1512 08015G25KT 5000 -TSRA SCT025 FEW030CB PROB40 TEMPO 1515/1521 08020G40KT 3000 BLDU TSRA SCT020 SCT030CB PPRO30 TEMPO 1603/1609 10020G45KT 3000 TSRA SCT020 SCT030CB

4,000개 이상의 공항 관측 자료 및 예보 (METAR 및 TAF 보고).

지도상에서 검색 가능한 기상관측소가 노란 점과 빨간 점으로 표시되어 있습니다.

기상관측소 명을 보려면 표시 위로 마우스를 이동하세요.

날씨 관측과 예보를 보려면 클릭하세요.

지도 변경 : 확대하려면 엑스 표시가 있는 녹색 버튼, 축소하려면 빼기 표시가 있는 녹색 버튼, 다음 페이지의 지도를 보려면 녹색 화살표를 클릭하세요.


METAR-TAF: